createdAt,value
2022-08-28T00:00:52.383Z,14.73
2022-08-28T00:04:36.075Z,16.13
2022-08-28T00:08:19.169Z,14.50
2022-08-28T00:12:02.171Z,15.57
2022-08-28T00:19:28.555Z,15.05
2022-08-28T00:23:11.434Z,14.68
2022-08-28T00:27:11.574Z,13.48
2022-08-28T00:30:56.654Z,13.27
2022-08-28T00:34:41.040Z,14.68
2022-08-28T00:38:26.165Z,14.48
2022-08-28T00:42:09.020Z,13.45
2022-08-28T00:45:51.487Z,15.15
2022-08-28T00:49:38.638Z,14.93
2022-08-28T00:53:23.502Z,14.15
2022-08-28T00:57:14.183Z,13.73
2022-08-28T01:00:56.716Z,14.13
2022-08-28T01:04:40.103Z,14.82
2022-08-28T01:08:24.104Z,14.60
2022-08-28T01:12:11.694Z,14.00
2022-08-28T01:15:55.969Z,14.95
2022-08-28T01:19:41.432Z,14.18
2022-08-28T01:23:41.487Z,16.25
2022-08-28T01:27:24.930Z,16.88
2022-08-28T01:31:10.708Z,17.67
2022-08-28T01:34:53.529Z,16.75
2022-08-28T01:38:36.222Z,17.27
2022-08-28T01:42:20.360Z,16.75
2022-08-28T01:46:06.139Z,17.95
2022-08-28T01:49:49.200Z,16.67
2022-08-28T01:53:33.239Z,17.13
2022-08-28T01:57:16.396Z,18.83
2022-08-28T02:01:01.512Z,18.42
2022-08-28T02:04:48.033Z,17.67
2022-08-28T02:08:31.133Z,18.17
2022-08-28T02:12:14.021Z,19.05
2022-08-28T02:15:56.669Z,18.17
2022-08-28T02:19:40.796Z,18.13
2022-08-28T02:23:23.309Z,20.55
2022-08-28T02:27:06.746Z,19.52
2022-08-28T02:30:49.437Z,19.10
2022-08-28T02:34:32.977Z,19.25
2022-08-28T02:38:17.296Z,19.95
2022-08-28T02:42:01.545Z,21.30
2022-08-28T02:45:44.372Z,21.85
2022-08-28T02:49:26.864Z,22.20
2022-08-28T02:53:17.953Z,20.52
2022-08-28T02:57:01.000Z,23.17
2022-08-28T03:00:43.958Z,23.90
2022-08-28T03:08:09.126Z,23.60
2022-08-28T03:11:53.944Z,23.58
2022-08-28T03:15:37.273Z,23.27
2022-08-28T03:19:20.580Z,24.33
2022-08-28T03:23:20.364Z,23.85
2022-08-28T03:27:04.151Z,22.92
2022-08-28T03:30:47.592Z,22.30
2022-08-28T03:34:33.516Z,23.52
2022-08-28T03:38:16.937Z,20.67
2022-08-28T03:42:00.924Z,22.75
2022-08-28T03:45:53.077Z,22.38
2022-08-28T03:49:35.743Z,22.42
2022-08-28T03:53:18.238Z,22.75
2022-08-28T03:57:01.004Z,22.90
2022-08-28T04:00:46.079Z,22.33
2022-08-28T04:04:28.893Z,23.15
2022-08-28T04:08:15.762Z,21.98
2022-08-28T04:11:58.670Z,22.08
2022-08-28T04:15:42.203Z,22.55
2022-08-28T04:19:26.857Z,21.73
2022-08-28T04:23:10.115Z,22.42
2022-08-28T04:30:35.408Z,22.20
2022-08-28T04:34:18.393Z,22.63
2022-08-28T04:38:05.501Z,22.90
2022-08-28T04:41:50.016Z,25.27
2022-08-28T04:45:32.949Z,27.52
2022-08-28T04:49:16.198Z,25.15
2022-08-28T04:56:43.321Z,25.13
2022-08-28T05:00:26.519Z,27.48
2022-08-28T05:04:09.620Z,26.25
2022-08-28T05:07:52.089Z,25.60
2022-08-28T05:11:35.270Z,25.98
2022-08-28T05:15:19.356Z,26.88
2022-08-28T05:19:02.278Z,25.73
2022-08-28T05:22:44.769Z,24.05
2022-08-28T05:26:29.939Z,24.90
2022-08-28T05:30:13.829Z,22.92
2022-08-28T05:33:59.597Z,23.23
2022-08-28T05:37:42.038Z,23.48
2022-08-28T05:41:26.863Z,22.88
2022-08-28T05:45:10.730Z,22.60
2022-08-28T05:48:53.566Z,22.42
2022-08-28T05:52:37.734Z,21.67
2022-08-28T05:56:23.113Z,21.92
2022-08-28T06:00:06.723Z,21.40
2022-08-28T06:03:55.069Z,19.90
2022-08-28T06:07:38.991Z,20.92
2022-08-28T06:11:21.826Z,20.40
2022-08-28T06:15:07.713Z,22.77
2022-08-28T06:18:51.467Z,19.88
2022-08-28T06:22:34.096Z,19.30
2022-08-28T06:26:18.255Z,18.85
2022-08-28T06:30:03.697Z,18.92
2022-08-28T06:33:46.566Z,18.00
2022-08-28T06:37:29.425Z,18.70
2022-08-28T06:41:11.980Z,19.42
2022-08-28T06:44:56.125Z,17.98
2022-08-28T06:48:38.571Z,19.50
2022-08-28T06:52:21.502Z,18.55
2022-08-28T06:56:08.475Z,19.60
2022-08-28T06:59:50.993Z,19.25
2022-08-28T07:03:36.085Z,19.88
2022-08-28T07:07:32.511Z,19.40
2022-08-28T07:11:19.023Z,19.52
2022-08-28T07:15:03.356Z,18.80
2022-08-28T07:18:48.029Z,19.60
2022-08-28T07:22:31.006Z,18.40
2022-08-28T07:26:16.432Z,19.33
2022-08-28T07:29:59.031Z,20.30
2022-08-28T07:33:43.563Z,18.45
2022-08-28T07:37:27.619Z,19.92
2022-08-28T07:41:15.876Z,18.85
2022-08-28T07:44:59.224Z,20.10
2022-08-28T07:48:42.821Z,19.30
2022-08-28T07:52:25.304Z,19.25
2022-08-28T07:56:11.510Z,18.67
2022-08-28T07:59:54.365Z,18.58
2022-08-28T08:03:37.049Z,18.00
2022-08-28T08:07:20.476Z,17.50
2022-08-28T08:11:06.266Z,18.58
2022-08-28T08:14:50.156Z,18.83
2022-08-28T08:18:33.448Z,18.58
2022-08-28T08:22:16.529Z,19.08
2022-08-28T08:26:00.629Z,17.17
2022-08-28T08:29:43.300Z,17.67
2022-08-28T08:33:27.290Z,18.92
2022-08-28T08:37:11.637Z,17.77
2022-08-28T08:40:54.607Z,18.20
2022-08-28T08:44:41.006Z,17.60
2022-08-28T08:48:33.059Z,16.15
2022-08-28T08:52:32.117Z,17.42
2022-08-28T08:56:17.460Z,16.17
2022-08-28T09:00:00.264Z,17.05
2022-08-28T09:03:56.005Z,15.57
2022-08-28T09:07:42.681Z,16.27
2022-08-28T09:11:38.240Z,15.13
2022-08-28T09:15:28.376Z,15.43
2022-08-28T09:19:19.610Z,14.35
2022-08-28T09:23:12.917Z,13.57
2022-08-28T09:26:59.988Z,12.30
2022-08-28T09:30:44.282Z,12.18
2022-08-28T09:34:38.173Z,12.13
2022-08-28T09:38:27.665Z,11.63
2022-08-28T09:42:36.237Z,11.82
2022-08-28T09:46:22.817Z,11.35
2022-08-28T09:50:35.155Z,10.15
2022-08-28T09:54:23.470Z,10.13
2022-08-28T09:58:07.083Z,9.57
2022-08-28T10:02:02.985Z,9.45
2022-08-28T10:05:57.457Z,9.50
2022-08-28T10:09:48.457Z,8.80
2022-08-28T10:13:34.849Z,8.73
2022-08-28T10:17:31.885Z,9.20
2022-08-28T10:21:22.465Z,8.15
2022-08-28T10:25:17.489Z,8.02
2022-08-28T10:29:13.843Z,7.18
2022-08-28T10:33:21.478Z,7.07
2022-08-28T10:37:13.229Z,6.78
2022-08-28T10:41:00.680Z,6.30
2022-08-28T10:44:53.161Z,7.28
2022-08-28T10:48:42.361Z,5.90
2022-08-28T10:52:32.168Z,6.15
2022-08-28T10:56:18.885Z,5.95
2022-08-28T11:00:08.185Z,5.97
2022-08-28T11:03:52.485Z,5.85
2022-08-28T11:07:39.979Z,6.47
2022-08-28T11:11:43.524Z,5.47
2022-08-28T11:15:46.570Z,5.25
2022-08-28T11:20:01.587Z,6.15
2022-08-28T11:23:52.654Z,5.30
2022-08-28T11:27:37.168Z,5.57
2022-08-28T11:31:42.353Z,6.22
2022-08-28T11:35:48.307Z,5.38
2022-08-28T11:39:32.389Z,5.40
2022-08-28T11:43:35.905Z,5.20
2022-08-28T11:47:52.145Z,5.43
2022-08-28T11:51:56.493Z,4.57
2022-08-28T11:55:57.186Z,6.22
2022-08-28T12:00:06.632Z,5.30
2022-08-28T12:03:57.546Z,6.03
2022-08-28T12:07:42.029Z,5.45
2022-08-28T12:11:55.344Z,5.45
2022-08-28T12:19:35.366Z,5.40
2022-08-28T12:23:41.698Z,5.07
2022-08-28T12:27:29.368Z,5.47
2022-08-28T12:32:09.136Z,5.22
2022-08-28T12:35:52.073Z,4.68
2022-08-28T12:39:35.185Z,4.63
2022-08-28T12:43:30.926Z,4.55
2022-08-28T12:47:16.349Z,4.82
2022-08-28T12:51:05.694Z,5.05
2022-08-28T12:54:51.289Z,3.88
2022-08-28T12:58:40.484Z,5.35
2022-08-28T13:02:28.046Z,4.82
2022-08-28T13:06:11.161Z,5.10
2022-08-28T13:09:56.675Z,5.10
2022-08-28T13:13:51.258Z,5.10
2022-08-28T13:17:49.197Z,4.90
2022-08-28T13:21:37.391Z,5.35
2022-08-28T13:25:23.960Z,4.90
2022-08-28T13:29:19.477Z,5.43
2022-08-28T13:33:04.570Z,4.45
2022-08-28T13:36:49.133Z,4.72
2022-08-28T13:44:46.771Z,5.32
2022-08-28T13:48:30.067Z,4.22
2022-08-28T13:52:12.817Z,4.55
2022-08-28T13:55:55.784Z,5.10
2022-08-28T14:03:38.423Z,4.60
2022-08-28T14:07:21.116Z,4.40
2022-08-28T14:11:04.357Z,4.57
2022-08-28T14:14:49.133Z,4.63
2022-08-28T14:18:31.776Z,4.20
2022-08-28T14:22:14.244Z,4.63
2022-08-28T14:25:57.432Z,4.05
2022-08-28T14:29:40.332Z,4.20
2022-08-28T14:33:24.437Z,4.43
2022-08-28T14:37:07.318Z,4.38
2022-08-28T14:44:37.349Z,4.00
2022-08-28T14:48:20.396Z,4.22
2022-08-28T14:52:05.476Z,4.80
2022-08-28T14:55:50.761Z,4.43
2022-08-28T14:59:33.957Z,4.50
2022-08-28T15:03:18.439Z,4.43
2022-08-28T15:07:02.877Z,4.47
2022-08-28T15:10:51.093Z,4.60
2022-08-28T15:14:34.232Z,4.65
2022-08-28T15:18:17.079Z,3.97
2022-08-28T15:22:00.164Z,4.40
2022-08-28T15:25:42.852Z,3.78
2022-08-28T15:29:27.919Z,3.78
2022-08-28T15:33:10.890Z,3.83
2022-08-28T15:41:02.726Z,3.95
2022-08-28T15:44:46.623Z,4.03
2022-08-28T15:48:29.182Z,4.25
2022-08-28T15:52:12.511Z,4.15
2022-08-28T15:55:55.042Z,3.88
2022-08-28T15:59:49.468Z,3.63
2022-08-28T16:03:35.303Z,4.10
2022-08-28T16:07:19.000Z,4.03
2022-08-28T16:11:01.688Z,4.00
2022-08-28T16:14:44.380Z,3.80
2022-08-28T16:22:11.347Z,3.47
2022-08-28T16:25:54.654Z,3.80
2022-08-28T16:29:37.659Z,3.80
2022-08-28T16:37:04.465Z,3.75
2022-08-28T16:40:48.592Z,3.95
2022-08-28T16:44:31.384Z,3.45
2022-08-28T16:48:15.462Z,4.05
2022-08-28T16:51:57.813Z,3.78
2022-08-28T16:55:40.838Z,4.63
2022-08-28T16:59:24.709Z,3.95
2022-08-28T17:03:07.160Z,3.67
2022-08-28T17:06:49.824Z,3.83
2022-08-28T17:10:34.679Z,3.85
2022-08-28T17:14:18.137Z,3.63
2022-08-28T17:18:02.344Z,4.22
2022-08-28T17:22:02.885Z,4.35
2022-08-28T17:25:45.671Z,4.03
2022-08-28T17:29:28.931Z,3.60
2022-08-28T17:33:13.347Z,4.40
2022-08-28T17:36:56.002Z,4.22
2022-08-28T17:40:39.293Z,3.83
2022-08-28T17:44:22.236Z,4.47
2022-08-28T17:48:05.519Z,3.90
2022-08-28T17:51:50.003Z,4.65
2022-08-28T17:55:32.411Z,4.50
2022-08-28T18:02:58.469Z,4.57
2022-08-28T18:06:41.036Z,4.68
2022-08-28T18:10:25.991Z,4.60
2022-08-28T18:14:09.216Z,4.30
2022-08-28T18:17:52.152Z,4.70
2022-08-28T18:21:34.735Z,4.75
2022-08-28T18:29:16.047Z,4.88
2022-08-28T18:32:59.226Z,8.25
2022-08-28T18:36:42.453Z,5.75
2022-08-28T18:40:25.410Z,5.25
2022-08-28T18:44:08.324Z,5.18
2022-08-28T18:47:52.566Z,4.95
2022-08-28T18:51:35.373Z,4.80
2022-08-28T18:55:18.551Z,4.72
2022-08-28T18:59:02.044Z,6.25
2022-08-28T19:02:45.872Z,4.70
2022-08-28T19:06:30.274Z,5.20
2022-08-28T19:10:32.190Z,5.53
2022-08-28T19:14:16.372Z,4.85
2022-08-28T19:18:01.462Z,5.45
2022-08-28T19:21:45.727Z,5.47
2022-08-28T19:25:30.467Z,5.00
2022-08-28T19:29:13.633Z,5.47
2022-08-28T19:32:57.074Z,5.25
2022-08-28T19:36:40.855Z,5.13
2022-08-28T19:40:25.196Z,5.15
2022-08-28T19:44:09.003Z,5.28
2022-08-28T19:47:52.192Z,5.45
2022-08-28T19:51:36.333Z,6.00
2022-08-28T19:55:23.150Z,5.70
2022-08-28T19:59:07.609Z,5.82
2022-08-28T20:02:51.549Z,5.43
2022-08-28T20:06:35.657Z,5.10
2022-08-28T20:10:19.093Z,5.38
2022-08-28T20:15:13.296Z,5.47
2022-08-28T20:18:58.885Z,5.40
2022-08-28T20:22:41.639Z,5.20
2022-08-28T20:26:24.530Z,4.53
2022-08-28T20:30:14.172Z,6.32
2022-08-28T20:33:57.110Z,6.10
2022-08-28T20:37:45.050Z,5.72
2022-08-28T20:41:28.442Z,5.75
2022-08-28T20:45:14.843Z,6.70
2022-08-28T20:48:57.503Z,4.82
2022-08-28T20:52:40.499Z,5.63
2022-08-28T20:56:23.178Z,5.68
2022-08-28T21:00:08.003Z,5.47
2022-08-28T21:03:52.410Z,4.68
2022-08-28T21:07:35.258Z,5.85
2022-08-28T21:11:17.949Z,4.93
2022-08-28T21:15:00.760Z,5.43
2022-08-28T21:18:59.251Z,6.13
2022-08-28T21:22:47.371Z,5.33
2022-08-28T21:26:30.117Z,5.20
2022-08-28T21:33:57.256Z,4.70
2022-08-28T21:37:41.417Z,4.32
2022-08-28T21:41:25.692Z,4.38
2022-08-28T21:45:12.046Z,4.78
2022-08-28T21:48:56.290Z,4.57
2022-08-28T21:52:39.438Z,4.45
2022-08-28T21:56:26.751Z,4.82
2022-08-28T22:00:13.398Z,4.97
2022-08-28T22:03:57.075Z,5.05
2022-08-28T22:07:40.981Z,5.43
2022-08-28T22:11:26.789Z,4.47
2022-08-28T22:15:09.673Z,4.60
2022-08-28T22:18:52.820Z,4.28
2022-08-28T22:26:38.260Z,3.85
2022-08-28T22:30:21.045Z,4.03
2022-08-28T22:34:06.145Z,3.88
2022-08-28T22:53:02.417Z,3.63
2022-08-28T22:56:45.906Z,3.83
2022-08-28T23:00:30.408Z,3.63
2022-08-28T23:04:13.350Z,3.75
2022-08-28T23:07:56.845Z,3.83
2022-08-28T23:11:50.290Z,3.58
2022-08-28T23:19:16.714Z,3.40
2022-08-28T23:23:00.698Z,3.92
2022-08-28T23:26:45.081Z,3.70
2022-08-28T23:30:29.656Z,3.70
2022-08-28T23:34:12.497Z,3.63
2022-08-28T23:41:37.779Z,3.45
2022-08-28T23:45:20.833Z,3.70
2022-08-28T23:56:30.064Z,3.45
